createdAt,value
2022-09-01T00:01:50.960Z,16.99
2022-09-01T00:04:21.250Z,16.98
2022-09-01T00:06:49.639Z,16.95
2022-09-01T00:09:19.901Z,16.92
2022-09-01T00:11:52.567Z,16.90
2022-09-01T00:14:30.029Z,16.89
2022-09-01T00:17:00.020Z,16.87
2022-09-01T00:19:29.604Z,16.87
2022-09-01T00:21:58.104Z,16.85
2022-09-01T00:24:26.694Z,16.82
2022-09-01T00:26:56.353Z,16.80
2022-09-01T00:29:25.699Z,16.76
2022-09-01T00:31:54.585Z,16.70
2022-09-01T00:34:23.101Z,16.70
2022-09-01T00:36:51.119Z,16.68
2022-09-01T00:39:18.938Z,16.66
2022-09-01T00:41:47.912Z,16.65
2022-09-01T00:44:23.284Z,16.63
2022-09-01T00:46:55.946Z,16.59
2022-09-01T00:49:31.681Z,16.56
2022-09-01T00:52:09.337Z,16.53
2022-09-01T00:54:41.052Z,16.53
2022-09-01T00:57:10.911Z,16.50
2022-09-01T00:59:46.924Z,16.46
2022-09-01T01:02:15.735Z,16.45
2022-09-01T01:04:46.262Z,16.43
2022-09-01T01:07:14.725Z,16.42
2022-09-01T01:09:45.886Z,16.40
2022-09-01T01:12:18.659Z,16.40
2022-09-01T01:14:50.149Z,16.40
2022-09-01T01:17:18.968Z,16.38
2022-09-01T01:20:06.698Z,16.36
2022-09-01T01:23:00.000Z,16.34
2022-09-01T01:25:31.666Z,16.29
2022-09-01T01:28:13.195Z,16.27
2022-09-01T01:30:44.200Z,16.26
2022-09-01T01:33:12.364Z,16.23
2022-09-01T01:35:41.976Z,16.22
2022-09-01T01:38:09.858Z,16.20
2022-09-01T01:40:39.753Z,16.18
2022-09-01T01:43:07.787Z,16.12
2022-09-01T01:45:36.322Z,16.09
2022-09-01T01:48:06.087Z,16.06
2022-09-01T01:50:35.561Z,16.04
2022-09-01T01:53:10.817Z,16.03
2022-09-01T01:55:41.751Z,16.00
2022-09-01T01:58:12.035Z,16.01
2022-09-01T02:00:44.476Z,15.98
2022-09-01T02:03:17.283Z,15.99
2022-09-01T02:05:46.869Z,16.01
2022-09-01T02:08:20.886Z,15.97
2022-09-01T02:10:52.637Z,15.94
2022-09-01T02:13:31.020Z,15.93
2022-09-01T02:16:02.013Z,15.93
2022-09-01T02:18:34.326Z,15.91
2022-09-01T02:21:02.163Z,15.90
2022-09-01T02:23:30.064Z,15.91
2022-09-01T02:26:18.017Z,15.92
2022-09-01T02:28:55.567Z,15.93
2022-09-01T02:31:24.334Z,15.93
2022-09-01T02:33:54.386Z,15.90
2022-09-01T02:36:25.212Z,15.89
2022-09-01T02:38:56.444Z,15.89
2022-09-01T02:41:29.408Z,15.87
2022-09-01T02:43:57.181Z,15.91
2022-09-01T02:46:25.263Z,15.92
2022-09-01T02:48:53.474Z,15.92
2022-09-01T02:51:24.100Z,15.94
2022-09-01T02:53:52.505Z,15.92
2022-09-01T02:56:25.004Z,15.94
2022-09-01T02:58:55.351Z,15.92
2022-09-01T03:01:25.452Z,15.88
2022-09-01T03:03:55.683Z,15.85
2022-09-01T03:06:25.006Z,15.84
2022-09-01T03:08:54.273Z,15.77
2022-09-01T03:11:24.325Z,15.77
2022-09-01T03:13:52.396Z,15.70
2022-09-01T03:16:23.591Z,15.68
2022-09-01T03:18:52.420Z,15.67
2022-09-01T03:21:20.678Z,15.64
2022-09-01T03:23:49.694Z,15.61
2022-09-01T03:26:21.064Z,15.59
2022-09-01T03:28:49.947Z,15.57
2022-09-01T03:31:18.982Z,15.56
2022-09-01T03:33:48.660Z,15.54
2022-09-01T03:36:20.159Z,15.54
2022-09-01T03:38:49.317Z,15.50
2022-09-01T03:41:18.785Z,15.49
2022-09-01T03:43:48.295Z,15.47
2022-09-01T03:46:21.599Z,15.47
2022-09-01T03:48:54.986Z,15.47
2022-09-01T03:51:24.594Z,15.46
2022-09-01T03:53:54.910Z,15.46
2022-09-01T03:56:26.191Z,15.47
2022-09-01T03:58:56.239Z,15.47
2022-09-01T04:01:25.174Z,15.47
2022-09-01T04:03:54.619Z,15.45
2022-09-01T04:06:24.413Z,15.43
2022-09-01T04:08:56.869Z,15.42
2022-09-01T04:11:25.252Z,15.42
2022-09-01T04:13:53.292Z,15.41
2022-09-01T04:16:41.852Z,15.39
2022-09-01T04:19:20.321Z,15.37
2022-09-01T04:21:50.436Z,15.34
2022-09-01T04:24:19.941Z,15.33
2022-09-01T04:26:49.721Z,15.34
2022-09-01T04:29:24.220Z,15.36
2022-09-01T04:31:52.276Z,15.33
2022-09-01T04:34:22.546Z,15.29
2022-09-01T04:36:56.822Z,15.32
2022-09-01T04:39:25.247Z,15.32
2022-09-01T04:41:54.132Z,15.34
2022-09-01T04:44:22.249Z,15.34
2022-09-01T04:46:50.883Z,15.34
2022-09-01T04:49:26.363Z,15.34
2022-09-01T04:51:55.546Z,15.34
2022-09-01T04:54:24.196Z,15.36
2022-09-01T04:56:54.003Z,15.33
2022-09-01T04:59:24.781Z,15.30
2022-09-01T05:01:55.676Z,15.32
2022-09-01T05:04:28.225Z,15.28
2022-09-01T05:06:59.678Z,15.30
2022-09-01T05:09:28.905Z,15.31
2022-09-01T05:11:57.705Z,15.31
2022-09-01T05:14:26.102Z,15.31
2022-09-01T05:16:58.879Z,15.34
2022-09-01T05:19:30.944Z,15.32
2022-09-01T05:22:00.047Z,15.37
2022-09-01T05:24:30.465Z,15.38
2022-09-01T05:26:59.024Z,15.40
2022-09-01T05:29:27.804Z,15.44
2022-09-01T05:31:56.900Z,15.44
2022-09-01T05:34:27.457Z,15.47
2022-09-01T05:36:59.419Z,15.50
2022-09-01T05:39:28.639Z,15.54
2022-09-01T05:41:57.241Z,15.54
2022-09-01T05:44:25.113Z,15.57
2022-09-01T05:46:53.618Z,15.60
2022-09-01T05:49:21.547Z,15.59
2022-09-01T05:51:52.207Z,15.61
2022-09-01T05:54:25.502Z,15.66
2022-09-01T05:56:53.676Z,15.70
2022-09-01T05:59:24.796Z,15.68
2022-09-01T06:01:54.192Z,15.76
2022-09-01T06:04:22.825Z,15.82
2022-09-01T06:07:08.478Z,15.87
2022-09-01T06:09:40.438Z,15.91
2022-09-01T06:12:09.308Z,15.99
2022-09-01T06:14:37.071Z,16.05
2022-09-01T06:17:04.884Z,16.10
2022-09-01T06:19:37.211Z,16.14
2022-09-01T06:22:05.327Z,16.20
2022-09-01T06:24:33.179Z,16.30
2022-09-01T06:27:02.861Z,16.34
2022-09-01T06:29:32.150Z,16.42
2022-09-01T06:32:02.301Z,16.49
2022-09-01T06:34:30.290Z,16.57
2022-09-01T06:36:58.072Z,16.61
2022-09-01T06:39:26.570Z,16.64
2022-09-01T06:41:54.788Z,16.72
2022-09-01T06:44:24.985Z,16.77
2022-09-01T06:46:54.049Z,16.82
2022-09-01T06:49:32.548Z,16.89
2022-09-01T06:52:00.904Z,16.97
2022-09-01T06:54:29.879Z,17.05
2022-09-01T06:56:59.497Z,17.11
2022-09-01T06:59:34.719Z,17.21
2022-09-01T07:04:51.946Z,17.33
2022-09-01T07:10:23.531Z,17.50
2022-09-01T07:13:07.852Z,17.62
2022-09-01T07:18:29.394Z,17.93
2022-09-01T07:23:49.171Z,18.34
2022-09-01T07:26:33.897Z,18.55
2022-09-01T07:29:04.336Z,18.77
2022-09-01T07:32:48.090Z,18.96
2022-09-01T07:34:46.137Z,19.13
2022-09-01T07:37:17.325Z,19.32
2022-09-01T07:42:57.818Z,17.31
2022-09-01T07:45:31.200Z,19.84
2022-09-01T07:48:03.528Z,19.98
2022-09-01T07:51:09.014Z,20.07
2022-09-01T07:53:22.572Z,20.09
2022-09-01T07:55:51.995Z,20.22
2022-09-01T07:58:22.002Z,20.40
2022-09-01T08:00:50.286Z,20.53
2022-09-01T08:03:21.933Z,20.72
2022-09-01T08:05:53.788Z,20.84
2022-09-01T08:08:26.242Z,21.03
2022-09-01T08:11:04.420Z,21.20
2022-09-01T08:13:37.283Z,21.33
2022-09-01T08:16:08.424Z,21.47
2022-09-01T08:18:53.336Z,21.56
2022-09-01T08:21:23.529Z,21.71
2022-09-01T08:23:52.475Z,21.77
2022-09-01T08:26:22.542Z,21.89
2022-09-01T08:28:57.946Z,21.98
2022-09-01T08:31:30.767Z,22.15
2022-09-01T08:34:00.445Z,22.23
2022-09-01T08:36:28.267Z,22.29
2022-09-01T08:38:56.181Z,22.46
2022-09-01T08:41:36.418Z,22.63
2022-09-01T08:44:14.905Z,22.68
2022-09-01T08:46:44.885Z,22.90
2022-09-01T08:49:27.996Z,22.89
2022-09-01T08:52:03.288Z,23.04
2022-09-01T08:54:38.404Z,23.27
2022-09-01T08:57:10.036Z,23.41
2022-09-01T08:59:38.958Z,23.38
2022-09-01T09:02:28.112Z,23.43
2022-09-01T09:05:20.882Z,23.45
2022-09-01T09:08:07.252Z,23.54
2022-09-01T09:10:43.684Z,23.66
2022-09-01T09:13:16.806Z,23.61
2022-09-01T09:15:51.614Z,23.55
2022-09-01T09:18:39.784Z,23.32
2022-09-01T09:21:17.423Z,22.99
2022-09-01T09:23:49.299Z,22.94
2022-09-01T09:26:22.234Z,22.86
2022-09-01T09:28:50.947Z,22.75
2022-09-01T09:31:30.156Z,22.66
2022-09-01T09:33:59.230Z,22.58
2022-09-01T09:36:36.094Z,22.50
2022-09-01T09:39:07.995Z,22.53
2022-09-01T09:41:36.314Z,22.57
2022-09-01T09:44:20.496Z,22.63
2022-09-01T09:46:50.576Z,22.85
2022-09-01T09:49:34.763Z,23.15
2022-09-01T09:52:17.424Z,23.52
2022-09-01T09:55:04.622Z,23.66
2022-09-01T09:57:33.324Z,23.87
2022-09-01T10:00:08.430Z,23.91
2022-09-01T10:02:38.835Z,23.88
2022-09-01T10:05:24.722Z,23.80
2022-09-01T10:07:55.125Z,23.69
2022-09-01T10:10:32.435Z,23.69
2022-09-01T10:13:01.989Z,23.83
2022-09-01T10:15:33.761Z,24.05
2022-09-01T10:18:30.223Z,24.25
2022-09-01T10:21:00.462Z,24.45
2022-09-01T10:23:32.378Z,24.72
2022-09-01T10:26:06.386Z,24.93
2022-09-01T10:28:50.637Z,25.18
2022-09-01T10:31:20.264Z,25.57
2022-09-01T10:33:48.874Z,25.88
2022-09-01T10:36:17.917Z,25.97
2022-09-01T10:38:53.760Z,26.22
2022-09-01T10:41:59.604Z,26.14
2022-09-01T10:44:34.103Z,26.34
2022-09-01T10:47:06.434Z,26.62
2022-09-01T10:50:07.413Z,26.81
2022-09-01T10:53:06.272Z,26.94
2022-09-01T10:56:04.886Z,27.05
2022-09-01T11:05:18.351Z,27.40
2022-09-01T11:08:09.119Z,27.39
2022-09-01T11:10:52.502Z,27.30
2022-09-01T11:13:40.339Z,27.16
2022-09-01T11:19:32.996Z,27.25
2022-09-01T11:22:22.342Z,27.14
2022-09-01T11:25:00.367Z,26.99
2022-09-01T11:28:13.732Z,26.72
2022-09-01T11:30:52.856Z,26.33
2022-09-01T11:33:43.119Z,26.42
2022-09-01T11:36:22.117Z,26.52
2022-09-01T11:38:55.230Z,26.82
2022-09-01T11:41:31.976Z,27.07
2022-09-01T11:44:00.972Z,27.26
2022-09-01T11:46:34.607Z,27.51
2022-09-01T11:49:08.101Z,27.81
2022-09-01T11:51:46.827Z,28.11
2022-09-01T11:54:16.710Z,28.32
2022-09-01T11:56:44.540Z,28.29
2022-09-01T11:59:12.489Z,27.98
2022-09-01T12:01:41.790Z,27.84
2022-09-01T12:04:22.410Z,27.60
2022-09-01T12:06:56.594Z,27.72
2022-09-01T12:09:33.904Z,27.81
2022-09-01T12:12:01.720Z,28.02
2022-09-01T12:14:39.029Z,28.00
2022-09-01T12:17:21.631Z,28.05
2022-09-01T12:19:49.285Z,28.10
2022-09-01T12:22:20.093Z,28.01
2022-09-01T12:24:49.965Z,28.06
2022-09-01T12:27:17.781Z,28.25
2022-09-01T12:29:46.083Z,28.44
2022-09-01T12:32:15.850Z,28.52
2022-09-01T12:34:46.894Z,28.43
2022-09-01T12:37:24.294Z,28.29
2022-09-01T12:39:54.520Z,28.20
2022-09-01T12:42:29.889Z,28.03
2022-09-01T12:45:13.115Z,27.93
2022-09-01T12:47:50.410Z,27.99
2022-09-01T12:50:43.604Z,27.87
2022-09-01T12:53:22.343Z,27.74
2022-09-01T12:56:17.469Z,27.71
2022-09-01T12:58:52.204Z,27.53
2022-09-01T13:01:29.567Z,27.32
2022-09-01T13:04:14.738Z,27.11
2022-09-01T13:06:44.186Z,27.08
2022-09-01T13:09:12.049Z,27.02
2022-09-01T13:14:31.709Z,26.66
2022-09-01T13:16:59.542Z,26.51
2022-09-01T13:19:30.407Z,26.33
2022-09-01T13:21:59.816Z,26.29
2022-09-01T13:24:30.474Z,26.27
2022-09-01T13:29:49.354Z,26.10
2022-09-01T13:32:20.994Z,26.07
2022-09-01T13:34:51.755Z,26.08
2022-09-01T13:37:21.926Z,26.11
2022-09-01T13:39:50.258Z,26.12
2022-09-01T13:42:19.323Z,26.16
2022-09-01T13:44:48.579Z,26.21
2022-09-01T13:47:29.258Z,26.37
2022-09-01T13:50:07.226Z,26.34
2022-09-01T13:52:38.561Z,26.23
2022-09-01T13:55:08.455Z,26.27
2022-09-01T13:57:36.985Z,26.22
2022-09-01T14:00:08.255Z,26.19
2022-09-01T14:02:37.450Z,26.14
2022-09-01T14:05:06.003Z,26.08
2022-09-01T14:07:34.030Z,26.03
2022-09-01T14:10:03.279Z,25.95
2022-09-01T14:12:32.092Z,25.96
2022-09-01T14:15:17.498Z,26.03
2022-09-01T14:17:47.665Z,26.02
2022-09-01T14:20:18.264Z,26.02
2022-09-01T14:22:46.947Z,26.02
2022-09-01T14:25:18.090Z,25.98
2022-09-01T14:27:47.507Z,25.93
2022-09-01T14:30:18.356Z,25.91
2022-09-01T14:32:46.568Z,25.89
2022-09-01T14:35:15.763Z,25.81
2022-09-01T14:37:44.889Z,25.82
2022-09-01T14:40:16.912Z,25.86
2022-09-01T14:42:49.444Z,25.86
2022-09-01T14:45:19.735Z,26.00
2022-09-01T14:47:48.781Z,26.20
2022-09-01T14:50:21.722Z,26.49
2022-09-01T14:52:53.233Z,26.60
2022-09-01T14:55:21.417Z,26.56
2022-09-01T14:57:50.647Z,26.77
2022-09-01T15:00:19.595Z,26.87
2022-09-01T15:02:47.744Z,26.81
2022-09-01T15:05:16.357Z,26.65
2022-09-01T15:07:44.374Z,26.49
2022-09-01T15:10:23.438Z,26.36
2022-09-01T15:12:55.911Z,26.20
2022-09-01T15:15:24.164Z,26.11
2022-09-01T15:17:52.099Z,26.02
2022-09-01T15:20:37.561Z,25.89
2022-09-01T15:23:05.883Z,25.81
2022-09-01T15:25:33.726Z,25.68
2022-09-01T15:28:03.361Z,25.60
2022-09-01T15:30:31.490Z,25.57
2022-09-01T15:32:59.585Z,25.51
2022-09-01T15:35:30.313Z,25.42
2022-09-01T15:37:58.298Z,25.31
2022-09-01T15:40:27.210Z,25.27
2022-09-01T15:42:55.826Z,25.22
2022-09-01T15:45:25.987Z,25.19
2022-09-01T15:47:54.243Z,25.15
2022-09-01T15:50:27.352Z,25.13
2022-09-01T15:52:58.606Z,25.09
2022-09-01T15:55:28.429Z,25.06
2022-09-01T15:57:56.666Z,25.03
2022-09-01T16:00:28.234Z,25.01
2022-09-01T16:03:01.593Z,24.95
2022-09-01T16:05:30.513Z,24.92
2022-09-01T16:07:58.934Z,24.88
2022-09-01T16:10:27.531Z,24.84
2022-09-01T16:12:55.350Z,24.80
2022-09-01T16:15:25.272Z,24.77
2022-09-01T16:18:07.397Z,24.64
2022-09-01T16:20:38.400Z,24.63
2022-09-01T16:23:17.113Z,24.65
2022-09-01T16:25:45.865Z,24.61
2022-09-01T16:28:23.581Z,24.58
2022-09-01T16:30:53.502Z,24.55
2022-09-01T16:33:22.762Z,24.54
2022-09-01T16:36:06.424Z,24.53
2022-09-01T16:38:42.228Z,24.52
2022-09-01T16:41:21.228Z,24.51
2022-09-01T16:43:57.513Z,24.51
2022-09-01T16:46:30.563Z,24.45
2022-09-01T16:49:18.135Z,24.44
2022-09-01T16:51:56.902Z,24.39
2022-09-01T16:54:34.524Z,24.39
2022-09-01T16:57:09.100Z,24.37
2022-09-01T16:59:51.969Z,24.35
2022-09-01T17:02:35.825Z,24.34
2022-09-01T17:05:16.816Z,24.33
2022-09-01T17:07:52.983Z,24.30
2022-09-01T17:10:33.858Z,24.27
2022-09-01T17:13:17.259Z,24.23
2022-09-01T17:15:51.765Z,24.18
2022-09-01T17:18:33.626Z,24.20
2022-09-01T17:21:10.956Z,24.19
2022-09-01T17:23:47.323Z,24.17
2022-09-01T17:26:20.604Z,24.16
2022-09-01T17:28:55.353Z,24.12
2022-09-01T17:31:47.483Z,24.09
2022-09-01T17:34:29.303Z,23.98
2022-09-01T17:37:09.641Z,23.94
2022-09-01T17:39:50.809Z,23.87
2022-09-01T17:42:30.235Z,23.81
2022-09-01T17:45:06.017Z,23.76
2022-09-01T17:47:44.687Z,23.71
2022-09-01T17:50:19.906Z,23.69
2022-09-01T17:53:03.467Z,23.64
2022-09-01T17:55:46.344Z,23.61
2022-09-01T17:58:28.585Z,23.57
2022-09-01T18:01:04.646Z,23.54
2022-09-01T18:03:47.068Z,23.52
2022-09-01T18:06:28.138Z,23.45
2022-09-01T18:08:59.249Z,23.41
2022-09-01T18:11:35.995Z,23.37
2022-09-01T18:14:09.769Z,23.31
2022-09-01T18:16:49.316Z,23.27
2022-09-01T18:19:20.624Z,23.21
2022-09-01T18:21:54.234Z,23.15
2022-09-01T18:24:30.072Z,23.12
2022-09-01T18:26:57.940Z,23.07
2022-09-01T18:29:29.651Z,23.00
2022-09-01T18:32:12.094Z,22.98
2022-09-01T18:34:55.924Z,22.93
2022-09-01T18:37:32.813Z,22.88
2022-09-01T18:40:17.273Z,22.83
2022-09-01T18:42:54.267Z,22.79
2022-09-01T18:45:32.546Z,22.73
2022-09-01T18:48:07.706Z,22.66
2022-09-01T18:50:45.655Z,22.60
2022-09-01T18:53:25.279Z,22.52
2022-09-01T18:56:01.828Z,22.42
2022-09-01T18:58:50.017Z,22.33
2022-09-01T19:01:29.822Z,22.25
2022-09-01T19:04:10.092Z,22.20
2022-09-01T19:06:47.576Z,22.11
2022-09-01T19:09:22.425Z,22.04
2022-09-01T19:12:03.797Z,22.00
2022-09-01T19:14:40.199Z,21.96
2022-09-01T19:17:24.611Z,21.91
2022-09-01T19:19:58.003Z,21.87
2022-09-01T19:22:38.261Z,21.84
2022-09-01T19:25:26.933Z,21.80
2022-09-01T19:27:59.247Z,21.73
2022-09-01T19:30:27.071Z,21.66
2022-09-01T19:32:56.595Z,21.60
2022-09-01T19:35:24.967Z,21.58
2022-09-01T19:37:52.770Z,21.52
2022-09-01T19:40:26.556Z,21.46
2022-09-01T19:43:01.232Z,21.45
2022-09-01T19:45:37.549Z,21.39
2022-09-01T19:48:15.093Z,21.35
2022-09-01T19:50:48.524Z,21.36
2022-09-01T19:53:36.801Z,21.33
2022-09-01T19:56:08.797Z,21.30
2022-09-01T19:58:47.526Z,21.33
2022-09-01T20:01:19.137Z,21.32
2022-09-01T20:03:53.600Z,21.30
2022-09-01T20:06:33.520Z,21.26
2022-09-01T20:09:08.424Z,21.23
2022-09-01T20:11:46.554Z,21.22
2022-09-01T20:14:47.160Z,21.22
2022-09-01T20:17:21.678Z,21.24
2022-09-01T20:19:56.695Z,21.23
2022-09-01T20:22:31.381Z,21.20
2022-09-01T20:25:10.705Z,21.20
2022-09-01T20:27:49.961Z,21.18
2022-09-01T20:30:21.721Z,21.12
2022-09-01T20:33:01.377Z,21.07
2022-09-01T20:35:41.811Z,21.01
2022-09-01T20:38:31.790Z,20.98
2022-09-01T20:41:05.844Z,20.95
2022-09-01T20:43:39.804Z,20.92
2022-09-01T20:46:09.043Z,20.91
2022-09-01T20:48:40.831Z,20.87
2022-09-01T20:51:15.083Z,20.88
2022-09-01T20:53:57.482Z,20.85
2022-09-01T20:56:36.359Z,20.84
2022-09-01T20:59:10.608Z,20.84
2022-09-01T21:01:47.400Z,20.82
2022-09-01T21:04:30.846Z,20.82
2022-09-01T21:07:05.878Z,20.81
2022-09-01T21:09:40.722Z,20.80
2022-09-01T21:12:10.611Z,20.78
2022-09-01T21:14:51.331Z,20.71
2022-09-01T21:17:30.531Z,20.64
2022-09-01T21:20:07.868Z,20.57
2022-09-01T21:22:35.979Z,20.49
2022-09-01T21:25:04.429Z,20.40
2022-09-01T21:27:37.365Z,20.32
2022-09-01T21:30:09.344Z,20.21
2022-09-01T21:32:39.354Z,20.15
2022-09-01T21:35:10.594Z,20.06
2022-09-01T21:37:38.455Z,19.98
2022-09-01T21:40:08.008Z,19.89
2022-09-01T21:42:39.559Z,19.79
2022-09-01T21:45:11.112Z,19.73
2022-09-01T21:47:41.010Z,19.70
2022-09-01T21:50:09.847Z,19.64
2022-09-01T21:52:37.766Z,19.60
2022-09-01T21:55:06.580Z,19.50
2022-09-01T21:57:35.452Z,19.41
2022-09-01T22:00:04.934Z,19.31
2022-09-01T22:02:33.041Z,19.19
2022-09-01T22:05:05.642Z,19.08
2022-09-01T22:07:33.323Z,19.01
2022-09-01T22:10:01.062Z,18.96
2022-09-01T22:12:28.893Z,18.96
2022-09-01T22:14:56.662Z,18.91
2022-09-01T22:17:24.411Z,18.86
2022-09-01T22:19:52.957Z,18.79
2022-09-01T22:22:22.123Z,18.74
2022-09-01T22:24:49.950Z,18.68
2022-09-01T22:27:17.843Z,18.59
2022-09-01T22:29:45.911Z,18.49
2022-09-01T22:32:13.797Z,18.43
2022-09-01T22:34:41.579Z,18.36
2022-09-01T22:37:11.675Z,18.32
2022-09-01T22:39:40.867Z,18.27
2022-09-01T22:42:08.784Z,18.17
2022-09-01T22:44:36.588Z,18.07
2022-09-01T22:47:04.563Z,18.03
2022-09-01T22:49:32.878Z,17.98
2022-09-01T22:52:00.668Z,17.94
2022-09-01T22:54:28.567Z,17.88
2022-09-01T22:56:59.425Z,17.84
2022-09-01T22:59:27.457Z,17.82
2022-09-01T23:01:55.698Z,17.80
2022-09-01T23:04:24.649Z,17.79
2022-09-01T23:06:53.953Z,17.77
2022-09-01T23:09:22.427Z,17.73
2022-09-01T23:11:50.714Z,17.72
2022-09-01T23:14:19.881Z,17.62
2022-09-01T23:16:51.374Z,17.60
2022-09-01T23:19:19.751Z,17.55
2022-09-01T23:21:48.137Z,17.50
2022-09-01T23:24:19.057Z,17.47
2022-09-01T23:26:48.439Z,17.42
2022-09-01T23:29:17.269Z,17.37
2022-09-01T23:31:46.662Z,17.28
2022-09-01T23:34:16.475Z,17.23
2022-09-01T23:36:44.439Z,17.19
2022-09-01T23:39:12.431Z,17.18
2022-09-01T23:41:40.391Z,17.20
2022-09-01T23:44:10.845Z,17.17
2022-09-01T23:46:41.920Z,17.15
2022-09-01T23:49:12.651Z,17.12
2022-09-01T23:51:41.176Z,17.09
2022-09-01T23:54:09.384Z,17.06
2022-09-01T23:56:39.221Z,17.04
2022-09-01T23:59:08.303Z,17.03
